createdAt,value
2022-12-31T00:00:48.087Z,100532.75
2022-12-31T00:03:51.839Z,100519.47
2022-12-31T00:06:56.039Z,100538.06
2022-12-31T00:09:58.939Z,100537.19
2022-12-31T00:13:01.787Z,100545.16
2022-12-31T00:16:12.294Z,100554.00
2022-12-31T00:19:15.454Z,100551.41
2022-12-31T00:22:19.777Z,100568.22
2022-12-31T00:25:22.669Z,100566.50
2022-12-31T00:28:25.491Z,100565.63
2022-12-31T00:31:30.293Z,100555.00
2022-12-31T00:34:33.088Z,100584.22
2022-12-31T00:37:37.735Z,100577.13
2022-12-31T00:40:40.775Z,100566.50
2022-12-31T00:43:44.164Z,100569.16
2022-12-31T00:46:47.002Z,100564.69
2022-12-31T00:49:49.835Z,100569.16
2022-12-31T00:52:54.017Z,100561.19
2022-12-31T00:56:02.150Z,100571.81
2022-12-31T00:59:05.390Z,100569.16
2022-12-31T01:02:08.446Z,100580.69
2022-12-31T01:05:11.408Z,100563.91
2022-12-31T01:08:15.621Z,100591.31
2022-12-31T01:11:23.087Z,100586.88
2022-12-31T01:14:25.962Z,100606.41
2022-12-31T01:17:28.948Z,100609.91
2022-12-31T01:20:31.841Z,100617.88
2022-12-31T01:23:36.559Z,100628.44
2022-12-31T01:26:40.344Z,100625.78
2022-12-31T01:29:43.195Z,100620.47
2022-12-31T01:32:46.009Z,100622.28
2022-12-31T01:35:49.143Z,100622.34
2022-12-31T01:38:54.174Z,100630.25
2022-12-31T01:41:57.000Z,100633.81
2022-12-31T01:44:59.955Z,100640.94
2022-12-31T01:48:02.975Z,100638.28
2022-12-31T01:51:08.868Z,100630.38
2022-12-31T01:54:16.119Z,100639.22
2022-12-31T01:57:19.598Z,100625.00
2022-12-31T02:00:22.652Z,100618.75
2022-12-31T02:03:27.663Z,100625.84
2022-12-31T02:06:38.164Z,100631.16
2022-12-31T02:09:43.257Z,100624.94
2022-12-31T02:12:46.360Z,100633.81
2022-12-31T02:16:04.771Z,100640.09
2022-12-31T02:19:33.856Z,100643.59
2022-12-31T02:23:07.533Z,100646.25
2022-12-31T02:26:36.018Z,100644.53
2022-12-31T02:30:03.696Z,100643.66
2022-12-31T02:33:18.024Z,100635.63
2022-12-31T02:36:24.833Z,100643.59
2022-12-31T02:39:29.218Z,100649.75
2022-12-31T02:42:32.079Z,100634.78
2022-12-31T02:45:40.123Z,100640.00
2022-12-31T02:48:50.246Z,100631.16
2022-12-31T02:52:01.486Z,100625.00
2022-12-31T02:55:12.255Z,100617.03
2022-12-31T02:58:43.967Z,100606.41
2022-12-31T03:02:09.416Z,100602.94
2022-12-31T03:05:14.998Z,100616.31
2022-12-31T03:08:22.756Z,100618.88
2022-12-31T03:11:39.531Z,100622.41
2022-12-31T03:14:42.383Z,100618.88
2022-12-31T03:17:47.559Z,100624.16
2022-12-31T03:21:09.732Z,100623.19
2022-12-31T03:24:29.917Z,100616.09
2022-12-31T03:27:32.770Z,100623.19
2022-12-31T03:30:37.710Z,100616.09
2022-12-31T03:33:43.203Z,100622.28
2022-12-31T03:36:46.012Z,100616.03
2022-12-31T03:39:48.843Z,100610.72
2022-12-31T03:42:51.761Z,100611.50
2022-12-31T03:45:55.636Z,100615.91
2022-12-31T03:48:59.823Z,100605.28
2022-12-31T03:52:03.587Z,100604.31
2022-12-31T03:55:07.654Z,100601.66
2022-12-31T03:58:10.539Z,100605.13
2022-12-31T04:01:13.434Z,100606.94
2022-12-31T04:04:17.736Z,100602.47
2022-12-31T04:07:20.562Z,100605.13
2022-12-31T04:10:23.493Z,100603.41
2022-12-31T04:13:26.356Z,100596.34
2022-12-31T04:16:29.568Z,100605.19
2022-12-31T04:19:33.812Z,100614.94
2022-12-31T04:22:36.775Z,100619.47
2022-12-31T04:25:39.656Z,100622.91
2022-12-31T04:28:42.772Z,100615.03
2022-12-31T04:31:45.649Z,100626.53
2022-12-31T04:34:49.908Z,100633.63
2022-12-31T04:37:52.764Z,100637.16
2022-12-31T04:41:13.111Z,100632.75
2022-12-31T04:44:16.238Z,100623.06
2022-12-31T04:47:23.692Z,100616.91
2022-12-31T04:50:28.252Z,100624.00
2022-12-31T04:53:31.820Z,100614.31
2022-12-31T04:56:36.629Z,100603.69
2022-12-31T04:59:39.566Z,100593.06
2022-12-31T05:02:42.616Z,100593.06
2022-12-31T05:05:47.044Z,100586.88
2022-12-31T05:08:51.670Z,100593.91
2022-12-31T05:11:54.526Z,100587.75
2022-12-31T05:14:57.489Z,100597.50
2022-12-31T05:18:00.355Z,100580.63
2022-12-31T05:21:05.020Z,100570.00
2022-12-31T05:24:08.712Z,100561.19
2022-12-31T05:27:11.544Z,100555.88
2022-12-31T05:30:15.389Z,100566.50
2022-12-31T05:33:18.662Z,100577.13
2022-12-31T05:36:22.851Z,100586.88
2022-12-31T05:39:25.700Z,100585.09
2022-12-31T05:42:28.528Z,100588.59
2022-12-31T05:45:31.571Z,100584.16
2022-12-31T05:48:34.785Z,100582.34
2022-12-31T05:51:39.058Z,100593.84
2022-12-31T05:54:41.988Z,100602.66
2022-12-31T05:57:45.213Z,100596.50
2022-12-31T06:00:48.112Z,100591.19
2022-12-31T06:03:51.133Z,100594.69
2022-12-31T06:06:55.464Z,100588.53
2022-12-31T06:09:58.323Z,100585.88
2022-12-31T06:13:01.240Z,100587.66
2022-12-31T06:16:07.060Z,100584.16
2022-12-31T06:19:10.106Z,100574.41
2022-12-31T06:22:14.280Z,100584.06
2022-12-31T06:25:17.307Z,100580.56
2022-12-31T06:28:20.780Z,100582.28
2022-12-31T06:31:23.776Z,100567.28
2022-12-31T06:34:26.614Z,100554.00
2022-12-31T06:37:30.787Z,100537.19
2022-12-31T06:40:33.718Z,100515.09
2022-12-31T06:43:37.290Z,100513.38
2022-12-31T06:46:40.133Z,100528.44
2022-12-31T06:49:43.065Z,100523.13
2022-12-31T06:52:47.491Z,100524.91
2022-12-31T06:55:51.217Z,100529.31
2022-12-31T06:58:54.567Z,100521.34
2022-12-31T07:02:33.487Z,100525.72
2022-12-31T07:05:43.233Z,100522.19
2022-12-31T07:08:57.263Z,100540.78
2022-12-31T07:12:05.760Z,100531.97
2022-12-31T07:15:15.778Z,100525.72
2022-12-31T07:18:32.009Z,100515.09
2022-12-31T07:21:38.505Z,100534.63
2022-12-31T07:24:43.366Z,100512.50
2022-12-31T07:28:08.908Z,100516.94
2022-12-31T07:31:18.321Z,100511.63
2022-12-31T07:34:28.995Z,100532.88
2022-12-31T07:37:40.656Z,100530.22
2022-12-31T07:40:57.687Z,100515.16
2022-12-31T07:44:08.767Z,100516.03
2022-12-31T07:47:21.972Z,100520.41
2022-12-31T07:50:25.615Z,100515.09
2022-12-31T07:53:29.381Z,100531.88
2022-12-31T07:56:34.230Z,100534.53
2022-12-31T07:59:48.457Z,100527.50
2022-12-31T08:03:15.155Z,100527.50
2022-12-31T08:06:26.450Z,100540.78
2022-12-31T08:09:42.743Z,100546.97
2022-12-31T08:12:50.629Z,100562.91
2022-12-31T08:15:54.139Z,100554.94
2022-12-31T08:18:57.649Z,100555.78
2022-12-31T08:22:25.969Z,100552.19
2022-12-31T08:25:36.927Z,100539.78
2022-12-31T08:28:56.173Z,100529.16
2022-12-31T08:32:04.670Z,100530.09
2022-12-31T08:35:19.822Z,100522.13
2022-12-31T08:38:31.891Z,100520.31
2022-12-31T08:41:43.089Z,100519.47
2022-12-31T08:44:56.333Z,100510.63
2022-12-31T08:48:03.198Z,100519.47
2022-12-31T08:51:07.155Z,100515.09
2022-12-31T08:54:12.095Z,100520.41
2022-12-31T08:57:24.273Z,100513.22
2022-12-31T09:00:29.955Z,100523.84
2022-12-31T09:03:59.222Z,100523.84
2022-12-31T09:07:04.216Z,100517.66
2022-12-31T09:10:19.151Z,100534.47
2022-12-31T09:13:30.670Z,100534.47
2022-12-31T09:16:43.046Z,100541.56
2022-12-31T09:19:46.134Z,100536.34
2022-12-31T09:22:49.952Z,100538.06
2022-12-31T09:26:00.572Z,100541.66
2022-12-31T09:29:10.701Z,100552.28
2022-12-31T09:32:25.628Z,100558.44
2022-12-31T09:35:36.338Z,100554.00
2022-12-31T09:38:45.794Z,100559.31
2022-12-31T09:42:13.619Z,100551.28
2022-12-31T09:45:55.396Z,100550.41
2022-12-31T09:49:26.583Z,100559.31
2022-12-31T09:52:44.295Z,100566.34
2022-12-31T09:55:53.345Z,100558.44
2022-12-31T09:59:03.837Z,100566.34
2022-12-31T10:02:20.740Z,100576.09
2022-12-31T10:05:47.142Z,100564.63
2022-12-31T10:09:12.723Z,100578.84
2022-12-31T10:12:54.626Z,100576.09
2022-12-31T10:16:16.351Z,100595.56
2022-12-31T10:19:45.767Z,100593.78
2022-12-31T10:23:18.564Z,100586.72
2022-12-31T10:26:38.728Z,100586.72
2022-12-31T10:29:47.411Z,100569.94
2022-12-31T10:33:01.457Z,100582.28
2022-12-31T10:36:16.094Z,100585.00
2022-12-31T10:39:28.058Z,100587.59
2022-12-31T10:43:06.416Z,100592.03
2022-12-31T10:46:41.187Z,100591.19
2022-12-31T10:50:17.170Z,100592.91
2022-12-31T10:53:45.443Z,100593.78
2022-12-31T10:57:24.732Z,100599.97
2022-12-31T11:00:31.902Z,100603.53
2022-12-31T11:04:10.425Z,100606.97
2022-12-31T11:07:44.431Z,100606.19
2022-12-31T11:11:20.139Z,100615.91
2022-12-31T11:15:02.790Z,100615.94
2022-12-31T11:18:11.368Z,100617.75
2022-12-31T11:21:28.406Z,100604.47
2022-12-31T11:24:47.142Z,100614.16
2022-12-31T11:28:09.352Z,100605.28
2022-12-31T11:31:33.769Z,100606.97
2022-12-31T11:34:56.898Z,100601.66
2022-12-31T11:38:08.200Z,100605.28
2022-12-31T11:41:17.601Z,100593.78
2022-12-31T11:44:35.578Z,100594.66
2022-12-31T11:48:29.755Z,100592.81
2022-12-31T11:51:44.266Z,100587.59
2022-12-31T11:55:09.761Z,100572.53
2022-12-31T11:58:15.916Z,100577.84
2022-12-31T12:01:23.351Z,100582.28
2022-12-31T12:04:27.800Z,100574.31
2022-12-31T12:07:32.761Z,100560.13
2022-12-31T12:10:41.951Z,100559.16
2022-12-31T12:13:44.835Z,100560.13
2022-12-31T12:16:47.898Z,100554.81
2022-12-31T12:19:56.664Z,100549.50
2022-12-31T12:23:03.897Z,100561.91
2022-12-31T12:26:07.024Z,100554.81
2022-12-31T12:29:11.710Z,100553.06
2022-12-31T12:32:18.106Z,100549.50
2022-12-31T12:35:26.910Z,100541.50
2022-12-31T12:38:30.202Z,100545.09
2022-12-31T12:41:33.359Z,100539.78
2022-12-31T12:44:36.615Z,100543.22
2022-12-31T12:47:43.311Z,100537.91
2022-12-31T12:50:49.880Z,100535.19
2022-12-31T12:54:01.508Z,100536.13
2022-12-31T12:57:17.884Z,100527.28
2022-12-31T13:00:22.590Z,100532.59
2022-12-31T13:04:31.843Z,100529.03
2022-12-31T13:07:26.927Z,100506.03
2022-12-31T13:10:49.725Z,100509.63
2022-12-31T13:14:03.972Z,100513.22
2022-12-31T13:17:27.663Z,100523.75
2022-12-31T13:20:37.683Z,100519.31
2022-12-31T13:23:49.194Z,100519.31
2022-12-31T13:26:58.471Z,100529.03
2022-12-31T13:30:03.928Z,100521.97
2022-12-31T13:33:15.668Z,100535.25
2022-12-31T13:36:21.775Z,100537.91
2022-12-31T13:39:28.347Z,100544.09
2022-12-31T13:42:40.312Z,100541.44
2022-12-31T13:45:46.531Z,100548.53
2022-12-31T13:48:53.769Z,100545.88
2022-12-31T13:52:03.630Z,100546.84
2022-12-31T13:55:15.115Z,100547.66
2022-12-31T13:58:24.241Z,100556.50
2022-12-31T14:01:34.219Z,100572.44
2022-12-31T14:04:41.449Z,100640.59
2022-12-31T14:07:50.935Z,100637.00
2022-12-31T14:11:05.152Z,100694.59
2022-12-31T14:14:16.265Z,100696.31
2022-12-31T14:17:27.876Z,100714.03
2022-12-31T14:20:43.144Z,100729.97
2022-12-31T14:23:54.223Z,100725.59
2022-12-31T14:27:03.718Z,100717.63
2022-12-31T14:30:14.508Z,100720.28
2022-12-31T14:33:34.154Z,100713.25
2022-12-31T14:36:48.530Z,100713.25
2022-12-31T14:39:57.623Z,100730.91
2022-12-31T14:43:14.335Z,100748.56
2022-12-31T14:46:26.015Z,100737.09
2022-12-31T14:49:43.047Z,100736.22
2022-12-31T14:52:51.687Z,100743.25
2022-12-31T14:55:59.188Z,100749.53
2022-12-31T14:59:04.701Z,100756.53
2022-12-31T15:02:27.358Z,100761.84
2022-12-31T15:05:33.044Z,100733.56
2022-12-31T15:08:47.568Z,100742.47
2022-12-31T15:12:09.578Z,100741.53
2022-12-31T15:15:33.496Z,100741.53
2022-12-31T15:18:51.050Z,100752.19
2022-12-31T15:22:03.754Z,100746.88
2022-12-31T15:25:22.957Z,100744.13
2022-12-31T15:28:37.329Z,100759.19
2022-12-31T15:31:48.230Z,100751.22
2022-12-31T15:35:02.073Z,100737.09
2022-12-31T15:38:19.677Z,100745.91
2022-12-31T15:41:29.223Z,100741.53
2022-12-31T15:44:43.116Z,100758.38
2022-12-31T15:47:52.503Z,100743.34
2022-12-31T15:50:59.748Z,100760.16
2022-12-31T15:54:05.375Z,100752.19
2022-12-31T15:57:15.509Z,100758.38
2022-12-31T16:00:20.235Z,100757.50
2022-12-31T16:03:26.838Z,100759.19
2022-12-31T16:06:31.776Z,100757.50
2022-12-31T16:09:36.364Z,100736.22
2022-12-31T16:12:44.547Z,100736.22
2022-12-31T16:15:51.009Z,100733.56
2022-12-31T16:18:56.811Z,100737.09
2022-12-31T16:22:03.562Z,100736.22
2022-12-31T16:25:30.174Z,100745.13
2022-12-31T16:28:32.902Z,100742.47
2022-12-31T16:31:35.751Z,100742.47
2022-12-31T16:34:39.950Z,100741.53
2022-12-31T16:37:42.811Z,100745.13
2022-12-31T16:41:07.807Z,100746.88
2022-12-31T16:44:26.476Z,100745.06
2022-12-31T16:47:34.409Z,100759.19
2022-12-31T16:50:38.747Z,100741.53
2022-12-31T16:53:43.000Z,100745.91
2022-12-31T16:56:46.099Z,100745.06
2022-12-31T16:59:52.627Z,100744.22
2022-12-31T17:03:09.017Z,100755.75
2022-12-31T17:06:17.991Z,100734.50
2022-12-31T17:09:23.528Z,100727.41
2022-12-31T17:12:28.115Z,100731.84
2022-12-31T17:15:40.848Z,100738.88
2022-12-31T17:18:46.123Z,100732.63
2022-12-31T17:21:50.416Z,100734.44
2022-12-31T17:25:00.087Z,100737.09
2022-12-31T17:28:05.304Z,100736.22
2022-12-31T17:31:27.062Z,100749.53
2022-12-31T17:34:33.763Z,100755.75
2022-12-31T17:37:38.038Z,100757.50
2022-12-31T17:40:50.828Z,100761.94
2022-12-31T17:43:58.307Z,100756.63
2022-12-31T17:47:03.450Z,100757.50
2022-12-31T17:50:17.522Z,100761.03
2022-12-31T17:53:22.129Z,100770.78
2022-12-31T17:56:25.005Z,100760.06
2022-12-31T17:59:30.556Z,100768.91
2022-12-31T18:02:33.458Z,100760.06
2022-12-31T18:05:36.443Z,100768.13
2022-12-31T18:08:40.807Z,100768.03
2022-12-31T18:11:44.083Z,100748.56
2022-12-31T18:14:46.941Z,100759.19
2022-12-31T18:17:49.872Z,100762.81
2022-12-31T18:20:54.987Z,100761.03
2022-12-31T18:27:02.415Z,100754.75
2022-12-31T18:30:07.909Z,100765.38
2022-12-31T18:33:12.769Z,100755.63
2022-12-31T18:36:18.222Z,100754.75
2022-12-31T18:39:22.456Z,100761.81
2022-12-31T18:42:27.760Z,100765.38
2022-12-31T18:45:30.612Z,100771.56
2022-12-31T18:48:33.487Z,100765.38
2022-12-31T18:51:36.839Z,100763.69
2022-12-31T18:54:41.132Z,100760.16
2022-12-31T18:57:43.996Z,100748.66
2022-12-31T19:00:47.633Z,100750.41
2022-12-31T19:03:50.514Z,100746.00
2022-12-31T19:06:53.379Z,100745.06
2022-12-31T19:09:58.583Z,100732.63
2022-12-31T19:13:01.839Z,100743.22
2022-12-31T19:16:04.837Z,100750.31
2022-12-31T19:19:08.819Z,100750.31
2022-12-31T19:22:16.078Z,100750.31
2022-12-31T19:25:22.867Z,100748.56
2022-12-31T19:28:27.821Z,100764.50
2022-12-31T19:31:30.676Z,100746.88
2022-12-31T19:34:33.589Z,100764.50
2022-12-31T19:37:36.509Z,100768.13
2022-12-31T19:40:41.371Z,100757.50
2022-12-31T19:43:44.311Z,100757.41
2022-12-31T19:46:49.299Z,100750.31
2022-12-31T19:49:52.217Z,100753.88
2022-12-31T19:52:56.494Z,100750.25
2022-12-31T19:56:00.828Z,100767.97
2022-12-31T19:59:05.641Z,100769.78
2022-12-31T20:02:08.590Z,100755.63
2022-12-31T20:05:12.173Z,100759.19
2022-12-31T20:08:17.013Z,100769.81
2022-12-31T20:11:25.296Z,100764.50
2022-12-31T20:14:28.149Z,100757.50
2022-12-31T20:17:31.019Z,100771.66
2022-12-31T20:20:33.831Z,100776.00
2022-12-31T20:23:36.746Z,100775.13
2022-12-31T20:26:41.292Z,100768.91
2022-12-31T20:29:44.080Z,100768.91
2022-12-31T20:32:46.917Z,100762.66
2022-12-31T20:35:49.761Z,100754.75
2022-12-31T20:38:52.641Z,100759.16
2022-12-31T20:41:56.848Z,100771.56
2022-12-31T20:44:59.677Z,100776.88
2022-12-31T20:48:02.471Z,100781.31
2022-12-31T20:51:05.429Z,100764.50
2022-12-31T20:54:10.582Z,100766.25
2022-12-31T20:57:14.780Z,100766.25
2022-12-31T21:00:18.508Z,100774.22
2022-12-31T21:04:02.236Z,100773.28
2022-12-31T21:06:44.104Z,100783.91
2022-12-31T21:09:47.025Z,100780.34
2022-12-31T21:12:53.439Z,100778.59
2022-12-31T21:15:56.427Z,100784.84
2022-12-31T21:18:59.234Z,100789.22
2022-12-31T21:22:02.099Z,100786.56
2022-12-31T21:25:05.656Z,100795.47
2022-12-31T21:28:10.045Z,100779.53
2022-12-31T21:31:14.457Z,100784.84
2022-12-31T21:34:17.364Z,100776.88
2022-12-31T21:37:20.211Z,100776.88
2022-12-31T21:40:23.013Z,100774.22
2022-12-31T21:43:27.689Z,100784.78
2022-12-31T21:46:30.632Z,100788.31
2022-12-31T21:49:33.448Z,100785.66
2022-12-31T21:52:36.307Z,100774.16
2022-12-31T21:55:57.320Z,100800.72
2022-12-31T21:59:19.213Z,100802.50
2022-12-31T22:02:40.332Z,100797.19
2022-12-31T22:05:48.773Z,100781.25
2022-12-31T22:08:53.433Z,100777.75
2022-12-31T22:11:56.366Z,100777.75
2022-12-31T22:15:15.756Z,100783.91
2022-12-31T22:18:18.988Z,100799.00
2022-12-31T22:21:25.425Z,100794.53
2022-12-31T22:24:28.281Z,100801.59
2022-12-31T22:27:31.121Z,100800.72
2022-12-31T22:30:35.925Z,100811.34
2022-12-31T22:33:38.855Z,100807.78
2022-12-31T22:36:41.738Z,100817.53
2022-12-31T22:39:45.122Z,100828.16
2022-12-31T22:42:48.057Z,100837.03
2022-12-31T22:45:52.350Z,100834.38
2022-12-31T22:48:58.734Z,100835.34
2022-12-31T22:52:04.347Z,100831.72
2022-12-31T22:55:10.271Z,100836.22
2022-12-31T22:58:13.033Z,100837.03
2022-12-31T23:01:19.445Z,100833.47
2022-12-31T23:04:22.367Z,100833.47
2022-12-31T23:07:25.383Z,100828.22
2022-12-31T23:10:45.719Z,100826.41
2022-12-31T23:14:06.094Z,100837.03
2022-12-31T23:17:32.782Z,100824.69
2022-12-31T23:20:53.211Z,100830.88
2022-12-31T23:23:56.067Z,100827.38
2022-12-31T23:26:59.269Z,100842.34
2022-12-31T23:30:02.169Z,100832.69
2022-12-31T23:33:06.727Z,100845.00
2022-12-31T23:36:10.073Z,100841.53
2022-12-31T23:39:13.505Z,100847.66
2022-12-31T23:42:16.351Z,100842.34
2022-12-31T23:45:19.257Z,100838.88
2022-12-31T23:48:23.474Z,100851.28
2022-12-31T23:51:26.360Z,100864.56
2022-12-31T23:54:29.790Z,100845.09
2022-12-31T23:57:32.862Z,100856.59
